Time;durP1;ratioP1;P1;durP2;ratioP2;P2;SDS_P1;SDS_P2;PMS_P1;PMS_P2;Temp;Humidity;BMP_temperature;BMP_pressure;BME280_temperature;BME280_humidity;BME280_pressure;Samples;Min_cycle;Max_cycle;Signal;HPM_P1;HPM_P2
2024/01/02 00:01:38;;;;;;;3.38;3.17;;;;;;;8.54;80.43;94651.72;5162253;27;20197;-71
2024/01/02 00:04:07;;;;;;;3.38;3.17;;;;;;;8.54;80.26;94647.03;5161934;27;20194;-71
2024/01/02 00:06:36;;;;;;;3.60;3.30;;;;;;;8.55;80.42;94654.09;5155498;27;20240;-71
2024/01/02 00:09:06;;;;;;;3.53;3.33;;;;;;;8.55;80.09;94653.31;5146750;27;20193;-71
2024/01/02 00:11:34;;;;;;;3.72;3.42;;;;;;;8.53;80.44;94650.09;5162187;27;20218;-71
2024/01/02 00:14:01;;;;;;;4.03;3.75;;;;;;;8.54;80.42;94652.50;5161746;27;20201;-71
2024/01/02 00:16:31;;;;;;;4.43;4.13;;;;;;;8.54;80.81;94646.22;5162506;27;20576;-71
2024/01/02 00:18:58;;;;;;;4.20;3.90;;;;;;;8.54;80.61;94648.97;5161990;27;20205;-71
2024/01/02 00:21:25;;;;;;;4.03;3.72;;;;;;;8.54;80.83;94652.50;5134962;27;20201;-71
2024/01/02 00:23:53;;;;;;;3.90;3.60;;;;;;;8.54;80.69;94648.97;5144133;27;20212;-71
2024/01/02 00:26:23;;;;;;;4.00;3.70;;;;;;;8.54;80.85;94657.22;5159092;27;20209;-71
2024/01/02 00:28:52;;;;;;;3.50;3.30;;;;;;;8.54;80.63;94663.50;5162044;27;20235;-71
2024/01/02 00:31:21;;;;;;;3.92;3.63;;;;;;;8.54;80.56;94652.50;5161522;27;20661;-71
2024/01/02 00:33:53;;;;;;;3.78;3.47;;;;;;;8.54;80.39;94655.25;5161813;27;20209;-71
2024/01/02 00:36:21;;;;;;;4.13;3.83;;;;;;;8.52;80.14;94649.31;5161760;27;20325;-71
2024/01/02 00:38:48;;;;;;;3.70;3.40;;;;;;;8.52;80.16;94648.50;5161940;27;20246;-71
2024/01/02 00:41:15;;;;;;;3.72;3.42;;;;;;;8.53;80.05;94648.16;5161730;27;20265;-72
2024/01/02 00:43:44;;;;;;;3.35;3.05;;;;;;;8.54;79.90;94649.78;5161279;27;20189;-71
2024/01/02 00:46:11;;;;;;;3.60;3.30;;;;;;;8.56;79.77;94650.19;5161879;27;20244;-71
2024/01/02 00:48:39;;;;;;;3.42;3.13;;;;;;;8.58;79.57;94644.38;5161278;27;20201;-71
2024/01/02 00:51:08;;;;;;;3.53;3.22;;;;;;;8.59;79.74;94651.47;5161089;27;20251;-71
2024/01/02 00:53:38;;;;;;;3.53;3.30;;;;;;;8.58;79.60;94639.66;5161746;27;20201;-71
2024/01/02 00:56:07;;;;;;;3.58;3.38;;;;;;;8.58;79.58;94641.63;5162014;27;20194;-70
2024/01/02 00:58:38;;;;;;;3.55;3.35;;;;;;;8.57;79.61;94646.31;5160842;27;20301;-70
2024/01/02 01:01:07;;;;;;;3.60;3.40;;;;;;;8.55;80.07;94636.81;5161120;27;20177;-70
2024/01/02 01:03:37;;;;;;;4.15;3.85;;;;;;;8.50;80.50;94631.59;5161480;27;20204;-70
2024/01/02 01:06:07;;;;;;;3.55;3.25;;;;;;;8.43;81.47;94626.69;5159536;27;20216;-70
2024/01/02 01:08:34;;;;;;;3.85;3.55;;;;;;;8.38;82.22;94627.72;5135985;27;20232;-70
2024/01/02 01:11:03;;;;;;;3.70;3.40;;;;;;;8.35;82.53;94630.31;5136336;27;20229;-70
2024/01/02 01:13:30;;;;;;;3.35;3.13;;;;;;;8.32;82.60;94628.31;5122403;27;20194;-71
2024/01/02 01:15:59;;;;;;;3.90;3.60;;;;;;;8.28;82.94;94624.63;5123101;27;20571;-70
2024/01/02 01:18:30;;;;;;;3.53;3.22;;;;;;;8.29;82.85;94634.50;5123403;27;20182;-70
2024/01/02 01:20:57;;;;;;;3.55;3.35;;;;;;;8.29;82.75;94629.78;5053963;27;20305;-70
2024/01/02 01:23:28;;;;;;;3.60;3.40;;;;;;;8.29;82.83;94627.03;5122230;27;20204;-71
2024/01/02 01:25:55;;;;;;;3.50;3.20;;;;;;;8.26;83.31;94626.94;5122043;27;20213;-71
2024/01/02 01:28:24;;;;;;;3.80;3.50;;;;;;;8.20;83.21;94618.13;5122779;27;20198;-71
2024/01/02 01:30:56;;;;;;;4.28;3.88;;;;;;;8.18;83.44;94623.19;5122772;27;20238;-71
2024/01/02 01:33:23;;;;;;;3.97;3.67;;;;;;;8.13;83.65;94628.91;5122136;27;20208;-71
2024/01/02 01:35:51;;;;;;;4.07;3.70;;;;;;;8.10;83.88;94621.41;5122132;27;20189;-71
2024/01/02 01:38:17;;;;;;;4.22;3.92;;;;;;;8.06;84.00;94621.28;5122578;27;20202;-71
2024/01/02 01:40:49;;;;;;;4.88;4.50;;;;;;;8.04;84.16;94620.03;5122279;27;20197;-71
2024/01/02 01:43:15;;;;;;;4.60;4.20;;;;;;;8.01;84.42;94624.25;5122429;27;20205;-71
2024/01/02 01:45:43;;;;;;;5.00;4.60;;;;;;;8.02;84.61;94614.88;5122241;27;20189;-71
2024/01/02 01:48:11;;;;;;;4.65;4.28;;;;;;;8.02;84.64;94611.31;5121814;27;20679;-71
2024/01/02 01:50:44;;;;;;;4.40;4.10;;;;;;;8.03;84.75;94613.75;5121857;27;20218;-71
2024/01/02 01:53:11;;;;;;;4.65;4.35;;;;;;;8.04;84.90;94618.06;5121825;27;20277;-71
2024/01/02 01:55:41;;;;;;;4.30;3.90;;;;;;;8.02;84.53;94623.09;5121952;27;20197;-71
2024/01/02 01:58:12;;;;;;;4.00;3.70;;;;;;;8.00;84.35;94624.63;5121632;27;20535;-71
2024/01/02 02:00:42;;;;;;;4.57;4.28;;;;;;;8.01;84.70;94626.22;5121516;27;20202;-71
2024/01/02 02:03:10;;;;;;;4.57;4.18;;;;;;;7.98;84.79;94624.94;5122157;27;20206;-71
2024/01/02 02:05:42;;;;;;;4.57;4.20;;;;;;;7.96;85.34;94619.03;5121503;27;20572;-71
2024/01/02 02:08:10;;;;;;;4.68;4.28;;;;;;;7.97;85.25;94624.16;5135538;27;20291;-71
2024/01/02 02:10:39;;;;;;;4.50;4.20;;;;;;;7.97;85.03;94626.09;5135548;27;20211;-71
2024/01/02 02:13:09;;;;;;;3.63;3.42;;;;;;;7.93;85.10;94620.50;5135289;27;20203;-71
2024/01/02 02:15:41;;;;;;;4.40;4.00;;;;;;;7.92;85.36;94621.66;5136139;27;20243;-71
2024/01/02 02:18:09;;;;;;;4.38;4.07;;;;;;;7.92;85.76;94615.38;5136022;27;20191;-71
2024/01/02 02:20:37;;;;;;;4.13;3.80;;;;;;;7.90;85.71;94620.41;5134486;27;20199;-71
2024/01/02 02:23:04;;;;;;;4.78;4.40;;;;;;;7.88;85.90;94619.94;5135966;27;20566;-71
2024/01/02 02:25:33;;;;;;;4.80;4.32;;;;;;;7.81;85.67;94625.22;5136065;27;20194;-71
2024/01/02 02:28:00;;;;;;;4.00;3.65;;;;;;;7.78;85.94;94625.91;5135355;27;20194;-71
2024/01/02 02:30:29;;;;;;;4.22;3.85;;;;;;;7.80;86.11;94618.13;5135604;27;20198;-71
2024/01/02 02:33:00;;;;;;;3.63;3.35;;;;;;;7.78;85.69;94618.47;5135194;27;20538;-71
2024/01/02 02:35:28;;;;;;;3.53;3.22;;;;;;;7.79;85.58;94608.28;5135615;28;20191;-70
2024/01/02 02:37:55;;;;;;;3.78;3.47;;;;;;;7.82;85.36;94618.59;5135591;28;20194;-70
2024/01/02 02:40:29;;;;;;;3.70;3.40;;;;;;;7.83;85.53;94610.00;5135248;28;20614;-70
2024/01/02 02:42:56;;;;;;;2.90;2.70;;;;;;;7.84;85.34;94611.63;5135066;28;20207;-70
2024/01/02 02:45:24;;;;;;;2.40;2.20;;;;;;;7.87;85.07;94610.09;5135764;28;20195;-70
2024/01/02 02:47:52;;;;;;;2.22;2.10;;;;;;;7.87;84.83;94610.09;5135490;28;20232;-70
2024/01/02 02:50:19;;;;;;;1.92;1.83;;;;;;;7.86;84.55;94608.50;5135094;28;20696;-70
2024/01/02 02:52:47;;;;;;;1.90;1.80;;;;;;;7.89;84.28;94614.09;5136646;28;20238;-71
2024/01/02 02:55:18;;;;;;;2.10;1.90;;;;;;;7.90;83.93;94612.16;5134837;28;20239;-71
2024/01/02 02:57:47;;;;;;;2.25;1.80;;;;;;;7.90;83.92;94612.97;5136691;28;20202;-71
2024/01/02 03:00:15;;;;;;;1.60;1.50;;;;;;;7.89;83.91;94610.56;5135743;27;20240;-71
2024/01/02 03:02:42;;;;;;;1.73;1.63;;;;;;;7.89;83.57;94616.06;5135206;28;20203;-71
2024/01/02 03:05:10;;;;;;;2.03;1.73;;;;;;;7.89;83.41;94610.56;5134690;28;20222;-71
2024/01/02 03:07:37;;;;;;;1.27;1.25;;;;;;;7.88;82.92;94614.44;5080687;28;20227;-71
2024/01/02 03:10:07;;;;;;;1.52;1.40;;;;;;;7.86;82.92;94612.06;5117765;28;20195;-72
2024/01/02 03:12:36;;;;;;;1.80;1.60;;;;;;;7.84;83.00;94611.63;5116439;28;20272;-71
2024/01/02 03:15:08;;;;;;;1.50;1.40;;;;;;;7.84;82.90;94603.38;5118430;28;20595;-71
2024/01/02 03:17:39;;;;;;;1.58;1.48;;;;;;;7.83;83.40;94598.22;5117843;28;20203;-71
2024/01/02 03:20:08;;;;;;;3.97;1.67;;;;;;;7.82;83.63;94594.69;5117462;28;20210;-71
2024/01/02 03:22:37;;;;;;;2.00;1.80;;;;;;;7.81;83.46;94608.75;5117643;28;20187;-71
2024/01/02 03:25:07;;;;;;;1.50;1.40;;;;;;;7.76;83.42;94608.97;5118405;28;20195;-71
2024/01/02 03:27:34;;;;;;;2.15;1.60;;;;;;;7.72;84.07;94606.94;5118319;28;20248;-71
2024/01/02 03:30:03;;;;;;;1.60;1.50;;;;;;;7.71;84.45;94604.53;5100855;27;20198;-71
2024/01/02 03:32:32;;;;;;;1.60;1.50;;;;;;;7.69;84.40;94591.16;5121568;27;20222;-71
2024/01/02 03:35:03;;;;;;;1.77;1.67;;;;;;;7.68;84.64;94589.56;5121490;27;20191;-71
2024/01/02 03:37:33;;;;;;;2.08;1.85;;;;;;;7.68;84.81;94588.75;5121643;27;20199;-71
2024/01/02 03:40:02;;;;;;;1.70;1.60;;;;;;;7.67;84.95;94598.16;5121241;27;20294;-71
2024/01/02 03:42:30;;;;;;;1.77;1.67;;;;;;;7.64;85.01;94598.84;5113301;27;20199;-71
2024/01/02 03:45:00;;;;;;;1.70;1.60;;;;;;;7.61;85.35;94602.25;5121783;27;20308;-71
2024/01/02 03:47:29;;;;;;;2.30;2.15;;;;;;;7.60;85.74;94598.72;5120978;27;20206;-71
2024/01/02 03:50:00;;;;;;;1.98;1.88;;;;;;;7.59;85.13;94599.88;5121804;27;20195;-71
2024/01/02 03:52:27;;;;;;;1.80;1.70;;;;;;;7.61;84.97;94591.28;5121628;27;20268;-71
2024/01/02 03:54:58;;;;;;;1.88;1.77;;;;;;;7.61;84.93;94596.78;5121038;27;20191;-71
2024/01/02 03:57:26;;;;;;;1.90;1.80;;;;;;;7.56;84.74;94597.03;5121060;27;20202;-71
2024/01/02 03:59:56;;;;;;;2.38;2.28;;;;;;;7.54;85.58;94597.34;5121512;27;20201;-71
2024/01/02 04:02:23;;;;;;;2.45;2.25;;;;;;;7.50;85.88;94603.88;5122066;27;20201;-71
2024/01/02 04:04:52;;;;;;;2.47;2.38;;;;;;;7.48;85.79;94604.22;5139110;27;20251;-71
2024/01/02 04:07:22;;;;;;;2.60;2.40;;;;;;;7.44;85.82;94601.38;5137652;27;20234;-71
2024/01/02 04:09:49;;;;;;;2.15;2.05;;;;;;;7.45;85.99;94600.22;5138923;27;20179;-71
2024/01/02 04:12:16;;;;;;;2.17;2.08;;;;;;;7.46;86.18;94599.06;5119906;27;20219;-71
2024/01/02 04:14:44;;;;;;;2.65;2.45;;;;;;;7.46;86.32;94606.50;5138935;27;20236;-71
2024/01/02 04:17:13;;;;;;;2.13;2.03;;;;;;;7.43;86.31;94613.47;5120997;27;20195;-71
2024/01/02 04:19:43;;;;;;;3.03;2.83;;;;;;;7.42;86.37;94613.84;5121189;27;20201;-71
2024/01/02 04:22:10;;;;;;;2.70;2.50;;;;;;;7.40;86.61;94611.41;5120968;27;20179;-71
2024/01/02 04:24:39;;;;;;;2.30;2.20;;;;;;;7.42;86.53;94622.06;5121402;27;20191;-71
2024/01/02 04:27:06;;;;;;;4.38;3.42;;;;;;;7.42;86.52;94616.56;5120555;27;20260;-71
2024/01/02 04:29:34;;;;;;;2.60;2.40;;;;;;;7.44;86.96;94617.00;5120895;27;20211;-71
2024/01/02 04:32:02;;;;;;;2.47;2.28;;;;;;;7.42;86.52;94620.13;5120149;27;20272;-71
2024/01/02 04:34:29;;;;;;;2.40;2.28;;;;;;;7.44;86.58;94626.06;5120638;27;20195;-71
2024/01/02 04:36:56;;;;;;;2.92;2.70;;;;;;;7.47;86.45;94627.31;5120818;27;20199;-71
2024/01/02 04:39:25;;;;;;;2.53;2.33;;;;;;;7.48;86.04;94626.19;5121208;27;20218;-71
2024/01/02 04:41:57;;;;;;;2.33;2.13;;;;;;;7.48;86.50;94628.94;5119448;28;20194;-71
2024/01/02 04:44:24;;;;;;;2.65;2.50;;;;;;;7.47;85.97;94636.34;5120683;27;20255;-70
2024/01/02 04:46:51;;;;;;;2.40;2.30;;;;;;;7.50;85.98;94636.81;5120100;27;20203;-70
2024/01/02 04:49:21;;;;;;;2.53;2.33;;;;;;;7.50;86.02;94639.56;5120241;27;20206;-69
2024/01/02 04:51:48;;;;;;;3.00;2.80;;;;;;;7.50;85.99;94631.31;5119549;27;20225;-69
2024/01/02 04:54:18;;;;;;;2.70;2.50;;;;;;;7.50;86.02;94632.13;5119689;27;20199;-69
2024/01/02 04:56:46;;;;;;;2.63;2.42;;;;;;;7.49;85.73;94633.25;5120790;27;20194;-69
2024/01/02 04:59:18;;;;;;;2.53;2.33;;;;;;;7.50;85.55;94631.31;5120267;27;20203;-69
2024/01/02 05:01:47;;;;;;;2.50;2.30;;;;;;;7.50;85.59;94634.84;5120641;27;20538;-69
2024/01/02 05:04:14;;;;;;;2.30;2.20;;;;;;;7.51;85.40;94639.19;5119373;27;20207;-69
2024/01/02 05:06:44;;;;;;;2.45;2.25;;;;;;;7.52;84.87;94635.31;5099910;28;20230;-67
2024/01/02 05:09:11;;;;;;;2.08;1.98;;;;;;;7.54;84.16;94640.47;5117812;27;20203;-69
2024/01/02 05:11:45;;;;;;;1.83;1.70;;;;;;;7.51;83.75;94639.19;5120355;27;20221;-69
2024/01/02 05:14:12;;;;;;;2.13;1.98;;;;;;;7.50;83.85;94642.28;5120050;27;20203;-68
2024/01/02 05:16:41;;;;;;;2.05;1.80;;;;;;;7.46;83.60;94642.19;5119744;27;20553;-69
2024/01/02 05:19:10;;;;;;;1.85;1.75;;;;;;;7.45;83.20;94638.63;5119859;27;20206;-69
2024/01/02 05:21:41;;;;;;;2.13;1.60;;;;;;;7.45;83.12;94641.38;5119456;27;20293;-69
2024/01/02 05:24:08;;;;;;;1.98;1.88;;;;;;;7.46;83.28;94639.44;5119015;27;20207;-68
2024/01/02 05:26:38;;;;;;;2.50;1.88;;;;;;;7.45;83.15;94646.06;5119829;27;20207;-68
2024/01/02 05:29:08;;;;;;;2.17;2.08;;;;;;;7.42;82.66;94652.25;5119684;27;20195;-68
2024/01/02 05:31:37;;;;;;;1.65;1.55;;;;;;;7.40;82.85;94651.78;5102445;27;20298;-68
2024/01/02 05:34:08;;;;;;;2.00;1.90;;;;;;;7.39;82.59;94658.41;5118894;27;20246;-70
2024/01/02 05:36:35;;;;;;;1.80;1.70;;;;;;;7.37;82.66;94668.91;5119511;27;20199;-69
2024/01/02 05:39:04;;;;;;;1.83;1.73;;;;;;;7.33;82.66;94671.53;5118791;27;20643;-68
2024/01/02 05:41:31;;;;;;;1.75;1.65;;;;;;;7.30;83.00;94671.44;5119230;27;20199;-69
2024/01/02 05:43:58;;;;;;;1.73;1.63;;;;;;;7.31;82.89;94675.78;5119472;27;20195;-70
2024/01/02 05:46:25;;;;;;;1.80;1.70;;;;;;;7.32;82.88;94691.09;5119263;27;20241;-70
2024/01/02 05:48:54;;;;;;;2.20;2.00;;;;;;;7.30;82.72;94683.22;5118576;27;20206;-70
2024/01/02 05:51:26;;;;;;;2.40;2.20;;;;;;;7.28;82.45;94684.69;5118885;27;20199;-71
2024/01/02 05:53:53;;;;;;;2.55;2.35;;;;;;;7.28;82.61;94690.19;5119840;27;20282;-73
2024/01/02 05:56:22;;;;;;;1.95;1.85;;;;;;;7.25;82.51;94697.16;5119444;27;20190;-72
2024/01/02 05:58:51;;;;;;;1.48;1.40;;;;;;;7.18;81.99;94696.91;5118590;27;20247;-72
2024/01/02 06:01:20;;;;;;;1.58;1.48;;;;;;;7.18;82.13;94700.44;5119443;27;20195;-72
2024/01/02 06:03:50;;;;;;;1.48;1.38;;;;;;;7.17;82.27;94706.28;5118827;27;20203;-71
2024/01/02 06:06:20;;;;;;;1.50;1.40;;;;;;;7.13;81.91;94706.16;5118944;27;20199;-71
2024/01/02 06:08:49;;;;;;;1.38;1.27;;;;;;;7.14;82.12;94707.75;5054393;28;20210;-71
2024/01/02 06:11:16;;;;;;;1.75;1.50;;;;;;;7.14;82.03;94717.94;5033858;28;20598;-71
2024/01/02 06:13:43;;;;;;;1.42;1.33;;;;;;;7.10;82.20;94723.28;5034949;28;20270;-71
2024/01/02 06:16:13;;;;;;;1.50;1.40;;;;;;;7.11;82.17;94724.09;5034677;28;20205;-71
2024/01/02 06:18:43;;;;;;;1.70;1.60;;;;;;;7.09;82.03;94727.19;5034889;28;20208;-71
2024/01/02 06:21:10;;;;;;;1.30;1.30;;;;;;;7.02;81.83;94732.41;5034911;28;20229;-70
2024/01/02 06:23:37;;;;;;;1.60;1.50;;;;;;;6.97;81.85;94746.31;5033512;28;20202;-72
2024/01/02 06:26:10;;;;;;;1.52;1.42;;;;;;;6.90;81.25;94746.06;5034993;28;20205;-72
2024/01/02 06:28:40;;;;;;;1.40;1.40;;;;;;;6.88;81.59;94751.91;5035188;28;20218;-73
2024/01/02 06:31:08;;;;;;;1.10;1.10;;;;;;;6.87;81.74;94753.03;5034750;28;20197;-72
2024/01/02 06:33:35;;;;;;;1.30;1.20;;;;;;;6.86;81.53;94756.94;5035246;28;20281;-72
2024/01/02 06:36:03;;;;;;;1.33;1.25;;;;;;;6.83;82.06;94754.06;5034384;28;20258;-72
2024/01/02 06:38:30;;;;;;;1.73;1.30;;;;;;;6.81;81.88;94761.81;5034283;28;20233;-72
2024/01/02 06:40:57;;;;;;;1.40;1.30;;;;;;;6.80;82.08;94761.00;5034364;28;20201;-73
2024/01/02 06:43:28;;;;;;;1.17;1.17;;;;;;;6.77;82.34;94758.13;5051886;28;20178;-72
2024/01/02 06:45:56;;;;;;;1.50;1.40;;;;;;;6.73;82.21;94771.72;5034456;28;20498;-73
2024/01/02 06:48:23;;;;;;;1.38;1.27;;;;;;;6.71;82.30;94780.25;5031528;28;20214;-74
2024/01/02 06:50:51;;;;;;;1.50;1.40;;;;;;;6.78;83.06;94778.94;5030076;28;20266;-71
2024/01/02 06:53:18;;;;;;;1.30;1.30;;;;;;;6.80;82.71;94784.88;5034661;28;20221;-73
2024/01/02 06:55:46;;;;;;;2.08;1.77;;;;;;;6.74;82.39;94793.28;5034117;28;20250;-72
2024/01/02 06:58:17;;;;;;;1.50;1.40;;;;;;;6.72;82.64;94803.81;5034819;28;20251;-71
2024/01/02 07:00:45;;;;;;;1.60;1.50;;;;;;;6.67;82.43;94803.19;5034881;28;20233;-72
2024/01/02 07:03:14;;;;;;;1.40;1.30;;;;;;;6.64;82.88;94799.16;5034322;28;20213;-72
2024/01/02 07:05:44;;;;;;;1.50;1.40;;;;;;;6.61;83.08;94790.81;5035978;28;20213;-72
2024/01/02 07:08:13;;;;;;;2.67;1.50;;;;;;;6.62;83.43;94789.72;5035857;28;20256;-73
2024/01/02 07:10:42;;;;;;;1.60;1.50;;;;;;;6.61;83.09;94794.38;5038037;28;20209;-73
2024/01/02 07:13:10;;;;;;;2.08;1.73;;;;;;;6.59;83.59;94799.38;5038272;28;20218;-74
2024/01/02 07:15:39;;;;;;;2.55;1.90;;;;;;;6.59;83.51;94799.38;5037637;28;20202;-73
2024/01/02 07:18:08;;;;;;;3.28;2.38;;;;;;;6.60;83.48;94803.72;5037403;28;20626;-73
2024/01/02 07:20:37;;;;;;;2.30;2.20;;;;;;;6.58;83.42;94806.00;5037860;28;20202;-73
2024/01/02 07:23:06;;;;;;;2.53;2.33;;;;;;;6.56;83.42;94804.72;5038270;28;20201;-75
2024/01/02 07:25:36;;;;;;;3.03;2.72;;;;;;;6.56;83.11;94804.72;5038260;28;20281;-71
2024/01/02 07:28:11;;;;;;;2.47;2.28;;;;;;;6.55;82.72;94795.72;5037705;28;20186;-73
2024/01/02 07:30:40;;;;;;;2.92;2.28;;;;;;;6.55;82.87;94794.91;5037175;28;20206;-70
2024/01/02 07:33:13;;;;;;;2.53;2.20;;;;;;;6.52;82.94;94801.84;5037244;28;20281;-74
2024/01/02 07:35:44;;;;;;;2.50;2.30;;;;;;;6.53;82.98;94808.94;5037816;28;20302;-70
2024/01/02 07:38:11;;;;;;;5.82;5.32;;;;;;;6.55;82.55;94812.16;5037801;28;20233;-72
2024/01/02 07:40:40;;;;;;;2.58;2.38;;;;;;;6.57;82.93;94820.03;5037877;28;20213;-72
2024/01/02 07:43:07;;;;;;;2.80;2.60;;;;;;;6.56;82.60;94826.66;5037521;28;20190;-72
2024/01/02 07:45:35;;;;;;;2.75;2.50;;;;;;;6.56;82.54;94819.22;5037186;28;20205;-71
2024/01/02 07:48:04;;;;;;;2.00;1.90;;;;;;;6.56;82.62;94821.19;5036988;28;20337;-71
2024/01/02 07:50:34;;;;;;;2.13;2.03;;;;;;;6.57;82.42;94820.03;5054760;28;20202;-72
2024/01/02 07:53:04;;;;;;;2.20;2.10;;;;;;;6.57;82.36;94820.81;5037511;28;20233;-75
2024/01/02 07:55:31;;;;;;;2.35;2.10;;;;;;;6.56;82.45;94832.94;5037775;28;20198;-71
2024/01/02 07:58:03;;;;;;;2.15;2.05;;;;;;;6.53;82.65;94825.38;5037228;28;20202;-73
2024/01/02 08:00:34;;;;;;;1.80;1.70;;;;;;;6.50;82.93;94829.59;5037974;28;20209;-73
2024/01/02 08:03:02;;;;;;;2.17;1.80;;;;;;;6.51;83.00;94822.97;5036909;28;20201;-72
2024/01/02 08:05:34;;;;;;;1.70;1.60;;;;;;;6.52;83.02;94832.00;5037274;28;20202;-73
2024/01/02 08:08:03;;;;;;;1.67;1.58;;;;;;;6.55;82.34;94839.56;5033707;28;20560;-73
2024/01/02 08:10:32;;;;;;;1.60;1.45;;;;;;;6.55;82.12;94836.81;5033784;28;20293;-74
2024/01/02 08:13:02;;;;;;;2.17;1.98;;;;;;;6.54;82.94;94850.88;5033855;28;20214;-73
2024/01/02 08:15:34;;;;;;;2.20;2.10;;;;;;;6.53;83.21;94850.03;5026855;28;20187;-74
2024/01/02 08:18:04;;;;;;;2.45;2.35;;;;;;;6.53;82.95;94846.50;5032745;28;20205;-74
2024/01/02 08:20:35;;;;;;;2.53;2.33;;;;;;;6.53;82.56;94849.22;5033625;28;20202;-74
2024/01/02 08:23:11;;;;;;;2.40;2.20;;;;;;;6.49;81.92;94854.56;5033679;28;20200;-74
2024/01/02 08:25:39;;;;;;;2.42;2.22;;;;;;;6.46;82.23;94849.75;5033455;28;20561;-74
2024/01/02 08:28:08;;;;;;;2.83;2.47;;;;;;;6.44;81.86;94847.34;5033807;28;20209;-74
2024/01/02 08:30:43;;;;;;;2.90;2.67;;;;;;;6.43;82.18;94853.97;5032988;28;20190;-73
2024/01/02 08:33:11;;;;;;;2.80;2.60;;;;;;;6.44;82.30;94843.81;5033870;28;20301;-73
2024/01/02 08:35:40;;;;;;;2.67;2.47;;;;;;;6.45;82.54;94840.72;5032967;28;20198;-73
2024/01/02 08:38:11;;;;;;;2.85;2.42;;;;;;;6.47;82.35;94848.63;5033393;28;20313;-74
2024/01/02 08:40:38;;;;;;;2.28;2.05;;;;;;;6.50;82.25;94847.97;5033749;28;20233;-77
2024/01/02 08:43:08;;;;;;;3.00;2.30;;;;;;;6.49;82.13;94849.91;5033389;28;20210;-76
2024/01/02 08:45:38;;;;;;;2.40;2.20;;;;;;;6.49;82.26;94844.41;5032631;28;20699;-77
2024/01/02 08:48:08;;;;;;;3.30;3.00;;;;;;;6.49;82.30;94854.56;5033144;28;20293;-76
2024/01/02 08:50:35;;;;;;;3.28;2.88;;;;;;;6.49;82.03;94846.34;5033001;28;20210;-76
2024/01/02 08:53:03;;;;;;;3.22;2.92;;;;;;;6.49;82.24;94852.63;5033358;28;20226;-76
2024/01/02 08:55:32;;;;;;;4.15;3.63;;;;;;;6.47;82.64;94859.59;5033127;28;20219;-77
2024/01/02 08:57:58;;;;;;;4.05;3.40;;;;;;;6.49;83.22;94862.78;5032630;28;20615;-76
2024/01/02 09:00:27;;;;;;;4.47;4.05;;;;;;;6.51;83.47;94844.09;5032525;28;20202;-76
2024/01/02 09:02:54;;;;;;;3.80;3.45;;;;;;;6.58;83.50;94843.56;5034151;28;20202;-78
2024/01/02 09:05:22;;;;;;;4.15;3.60;;;;;;;6.64;83.49;94843.03;5033430;28;20214;-78
2024/01/02 09:07:52;;;;;;;4.85;4.05;;;;;;;6.71;83.15;94839.75;5106451;27;20242;-78
2024/01/02 09:10:20;;;;;;;4.40;3.97;;;;;;;6.76;82.97;94836.84;5143375;27;20203;-79
2024/01/02 09:12:49;;;;;;;3.03;2.80;;;;;;;6.79;82.38;94832.59;5141420;27;20653;-72
2024/01/02 09:15:17;;;;;;;3.28;2.97;;;;;;;6.83;81.82;94828.88;5141018;27;20191;-70
2024/01/02 09:17:44;;;;;;;3.45;2.78;;;;;;;6.85;81.89;94831.28;5140824;27;20190;-71
2024/01/02 09:20:12;;;;;;;2.88;2.60;;;;;;;6.85;81.67;94832.06;5140207;27;20654;-71
2024/01/02 09:22:39;;;;;;;3.45;3.05;;;;;;;6.87;81.65;94837.22;5139585;27;20435;-74
2024/01/02 09:25:12;;;;;;;3.33;2.90;;;;;;;6.88;81.48;94836.09;5140481;27;20194;-74
2024/01/02 09:27:39;;;;;;;2.85;2.38;;;;;;;6.87;81.07;94839.97;5123290;27;20209;-72
2024/01/02 09:30:12;;;;;;;2.67;2.30;;;;;;;6.82;80.19;94835.47;5140103;27;20210;-73
2024/01/02 09:32:40;;;;;;;2.72;2.53;;;;;;;6.80;80.29;94834.22;5140276;27;20194;-73
2024/01/02 09:35:10;;;;;;;2.47;2.28;;;;;;;6.81;80.41;94841.31;5138603;27;20266;-73
2024/01/02 09:37:41;;;;;;;2.85;2.65;;;;;;;6.82;80.49;94831.94;5140026;27;20243;-74
2024/01/02 09:40:21;;;;;;;2.80;2.60;;;;;;;6.82;79.68;94827.25;5140120;27;20201;-75
2024/01/02 09:42:57;;;;;;;2.10;2.00;;;;;;;6.79;79.48;94814.25;5139899;27;20198;-76
2024/01/02 09:45:38;;;;;;;2.67;2.45;;;;;;;6.77;79.40;94811.03;5140035;27;20202;-76
2024/01/02 09:48:39;;;;;;;3.80;3.50;;;;;;;6.78;79.80;94807.13;5157795;27;20187;-75
2024/01/02 09:51:12;;;;;;;2.83;2.47;;;;;;;6.82;80.37;94801.78;5139200;27;20201;-75
2024/01/02 09:54:06;;;;;;;3.10;2.80;;;;;;;6.80;80.22;94810.34;5139884;27;20239;-75
2024/01/02 09:56:38;;;;;;;2.35;2.15;;;;;;;6.81;80.50;94800.19;5139529;27;20202;-75
2024/01/02 09:59:11;;;;;;;2.47;1.90;;;;;;;6.86;80.27;94797.22;5139603;27;20202;-75
2024/01/02 10:01:58;;;;;;;2.00;1.60;;;;;;;6.89;80.24;94786.38;5139156;27;20665;-75
2024/01/02 10:04:46;;;;;;;2.45;1.85;;;;;;;6.91;80.27;94786.06;5139799;27;20198;-75
2024/01/02 10:07:26;;;;;;;2.00;1.67;;;;;;;6.95;79.64;94770.56;5120956;27;20233;-75
2024/01/02 10:10:08;;;;;;;1.83;1.70;;;;;;;7.00;79.85;94767.59;5051922;28;20190;-76
2024/01/02 10:12:57;;;;;;;1.73;1.63;;;;;;;7.23;80.13;94770.75;5052513;28;20232;-72
2024/01/02 10:15:31;;;;;;;2.03;1.83;;;;;;;7.55;79.76;94780.06;5052311;28;20254;-71
2024/01/02 10:18:07;;;;;;;2.00;1.55;;;;;;;7.66;78.96;94774.94;5052614;28;20205;-72
2024/01/02 10:20:57;;;;;;;1.83;1.73;;;;;;;7.72;78.63;94762.59;5052331;28;20209;-73
2024/01/02 10:23:34;;;;;;;2.20;2.00;;;;;;;7.74;77.84;94765.03;5052048;28;20208;-73
2024/01/02 10:26:04;;;;;;;2.50;2.30;;;;;;;7.79;77.86;94771.06;5052018;28;20601;-75
2024/01/02 10:28:31;;;;;;;2.50;2.30;;;;;;;7.85;77.71;94755.19;5051895;28;20237;-72
2024/01/02 10:31:04;;;;;;;1.83;1.58;;;;;;;7.88;77.35;94763.53;5052455;28;20509;-73
2024/01/02 10:33:42;;;;;;;1.75;1.65;;;;;;;7.91;76.69;94762.03;5051433;28;20221;-77
2024/01/02 10:36:12;;;;;;;1.60;1.50;;;;;;;7.95;77.42;94761.03;5052130;28;20194;-73
2024/01/02 10:38:50;;;;;;;1.42;1.33;;;;;;;8.01;77.24;94758.84;5052479;28;20226;-74
2024/01/02 10:41:28;;;;;;;1.20;1.20;;;;;;;7.96;76.79;94751.63;5050517;28;20237;-74
2024/01/02 10:44:02;;;;;;;1.40;1.30;;;;;;;7.98;77.02;94748.53;5052366;28;20256;-72
2024/01/02 10:46:38;;;;;;;1.60;1.50;;;;;;;8.03;77.46;94753.81;5051395;28;20227;-72
2024/01/02 10:49:17;;;;;;;1.85;1.40;;;;;;;8.09;77.34;94746.91;5051843;28;20270;-70
2024/01/02 10:51:48;;;;;;;1.52;1.10;;;;;;;8.18;77.63;94744.06;5050643;28;20503;-70
2024/01/02 10:54:24;;;;;;;1.77;1.67;;;;;;;8.22;77.48;94746.94;5051936;28;20201;-72
2024/01/02 10:56:56;;;;;;;1.90;1.80;;;;;;;8.24;77.42;94744.63;5051578;28;20197;-72
2024/01/02 10:59:38;;;;;;;2.15;1.80;;;;;;;8.24;76.96;94750.09;5050856;28;20237;-74
2024/01/02 11:02:17;;;;;;;2.17;1.98;;;;;;;8.29;76.99;94741.66;5051320;28;20626;-74
2024/01/02 11:04:55;;;;;;;1.90;1.80;;;;;;;8.29;77.04;94736.94;5051267;28;20208;-73
2024/01/02 11:07:23;;;;;;;2.25;2.05;;;;;;;8.32;77.33;94732.72;5037924;28;20241;-75
2024/01/02 11:09:57;;;;;;;3.65;2.10;;;;;;;8.42;78.08;94732.25;5031238;28;20208;-75
2024/01/02 11:12:30;;;;;;;2.78;2.10;;;;;;;8.42;77.74;94727.56;5030399;28;20202;-75
2024/01/02 11:14:58;;;;;;;1.98;1.85;;;;;;;8.43;78.01;94725.63;5031140;28;20211;-74
2024/01/02 11:17:28;;;;;;;2.17;2.08;;;;;;;8.45;77.98;94728.81;5031279;28;20199;-73
2024/01/02 11:20:01;;;;;;;1.70;1.60;;;;;;;8.41;77.37;94731.44;5030521;28;20293;-74
2024/01/02 11:22:36;;;;;;;1.98;1.65;;;;;;;8.40;77.41;94724.34;5031702;28;20213;-73
2024/01/02 11:25:04;;;;;;;2.13;1.95;;;;;;;8.40;77.39;94726.31;5030510;28;20207;-75
2024/01/02 11:27:32;;;;;;;2.03;1.92;;;;;;;8.46;77.34;94719.44;5031338;28;20322;-75
2024/01/02 11:30:05;;;;;;;2.25;1.80;;;;;;;8.67;77.70;94716.47;5030506;28;20625;-75
2024/01/02 11:32:41;;;;;;;2.67;2.38;;;;;;;9.04;77.95;94711.66;5031569;28;20187;-74
2024/01/02 11:35:11;;;;;;;3.10;2.60;;;;;;;9.55;77.12;94716.47;5031311;28;20265;-74
2024/01/02 11:37:45;;;;;;;3.35;3.05;;;;;;;9.95;73.88;94723.75;5029522;28;20218;-75
2024/01/02 11:40:21;;;;;;;3.17;2.97;;;;;;;9.85;72.85;94720.41;5030565;28;20202;-75
2024/01/02 11:43:00;;;;;;;3.90;3.60;;;;;;;9.68;72.32;94715.25;5031186;28;20198;-76
2024/01/02 11:45:32;;;;;;;3.92;3.60;;;;;;;9.51;73.14;94713.63;5030623;28;20258;-77
2024/01/02 11:48:19;;;;;;;3.97;3.67;;;;;;;9.44;73.83;94724.50;5031378;28;20252;-76
2024/01/02 11:50:52;;;;;;;4.03;3.72;;;;;;;9.40;74.51;94709.81;5030956;28;20259;-76
2024/01/02 11:53:30;;;;;;;2.50;2.30;;;;;;;9.34;74.97;94712.03;5034864;28;20630;-74
2024/01/02 11:56:03;;;;;;;2.53;2.10;;;;;;;9.43;75.33;94717.38;5033974;28;20205;-76